Time;durP1;ratioP1;P1;durP2;ratioP2;P2;SDS_P1;SDS_P2;PMS_P1;PMS_P2;Temp;Humidity;BMP_temperature;BMP_pressure;BME280_temperature;BME280_humidity;BME280_pressure;Samples;Min_cycle;Max_cycle;Signal;HPM_P1;HPM_P2
2022/01/28 00:02:40;;;;;;;9.40;2.45;;;5.50;99.90;;;;;;5024287;28;20206;-82
2022/01/28 00:05:15;;;;;;;13.13;3.40;;;5.50;99.90;;;;;;5020789;28;20188;-84
2022/01/28 00:07:41;;;;;;;9.60;3.05;;;5.60;99.90;;;;;;5019984;28;20224;-81
2022/01/28 00:10:08;;;;;;;11.95;3.05;;;5.60;99.90;;;;;;5020958;28;20207;-81
2022/01/28 00:12:41;;;;;;;9.80;2.92;;;5.60;99.90;;;;;;5020137;28;20212;-82
2022/01/28 00:15:18;;;;;;;9.20;2.15;;;5.60;99.90;;;;;;5028055;28;20189;-79
2022/01/28 00:18:23;;;;;;;18.63;3.60;;;5.60;99.90;;;;;;5025307;28;20591;-82
2022/01/28 00:37:26;;;;;;;7.07;1.80;;;5.60;99.90;;;;;;5023719;28;20598;-82
2022/01/28 00:39:53;;;;;;;6.20;2.30;;;5.60;99.90;;;;;;5032959;28;20194;-79
2022/01/28 00:42:20;;;;;;;5.43;2.45;;;5.60;99.90;;;;;;5035475;28;20315;-78
2022/01/28 00:44:46;;;;;;;10.70;2.88;;;5.60;99.90;;;;;;5035950;28;20268;-80
2022/01/28 00:47:14;;;;;;;7.00;2.55;;;5.60;99.90;;;;;;5046641;22;20240;-80
2022/01/28 00:49:41;;;;;;;7.90;2.95;;;5.60;99.90;;;;;;5017189;28;20255;-80
2022/01/28 00:52:07;;;;;;;8.45;3.25;;;5.60;99.90;;;;;;5016866;28;20215;-80
2022/01/28 00:54:35;;;;;;;7.85;2.33;;;5.60;99.90;;;;;;5016274;28;20204;-80
2022/01/28 00:57:02;;;;;;;9.88;2.72;;;5.60;99.90;;;;;;5016300;28;20615;-78
2022/01/28 00:59:28;;;;;;;9.88;3.10;;;5.60;99.90;;;;;;5016824;28;20204;-79
2022/01/28 01:01:55;;;;;;;13.27;3.47;;;5.60;99.90;;;;;;5016813;28;20200;-79
2022/01/28 01:04:23;;;;;;;9.73;3.97;;;5.60;99.90;;;;;;5016458;28;20212;-79
2022/01/28 01:06:49;;;;;;;10.05;4.03;;;5.50;99.90;;;;;;5021564;28;20705;-79
2022/01/28 01:09:16;;;;;;;7.15;2.22;;;5.60;99.90;;;;;;5023642;28;20745;-79
2022/01/28 01:11:44;;;;;;;12.30;3.17;;;5.60;99.90;;;;;;5022422;28;20211;-78
2022/01/28 01:14:11;;;;;;;10.18;2.50;;;5.60;99.90;;;;;;5031518;28;20205;-79
2022/01/28 01:16:48;;;;;;;7.38;2.80;;;5.50;99.90;;;;;;5031316;28;20248;-78
2022/01/28 01:19:20;;;;;;;14.82;4.53;;;5.60;99.90;;;;;;5032864;28;20219;-79
2022/01/28 01:21:53;;;;;;;10.73;3.80;;;5.50;99.90;;;;;;5023242;28;20260;-78
2022/01/28 01:24:22;;;;;;;9.93;2.42;;;5.50;99.90;;;;;;5021400;28;20276;-79
2022/01/28 01:26:51;;;;;;;8.85;2.90;;;5.50;99.90;;;;;;5026198;28;20370;-78
2022/01/28 01:29:20;;;;;;;7.53;1.80;;;5.40;99.90;;;;;;5027744;28;20223;-79
2022/01/28 01:31:48;;;;;;;15.48;2.70;;;5.50;99.90;;;;;;5025205;28;20296;-80
2022/01/28 01:34:17;;;;;;;6.80;2.53;;;5.50;99.90;;;;;;5026040;28;20204;-79
2022/01/28 01:36:44;;;;;;;5.20;2.42;;;5.50;99.90;;;;;;5027063;28;20224;-78
2022/01/28 01:39:14;;;;;;;8.20;2.45;;;5.50;99.90;;;;;;5028039;28;20686;-79
2022/01/28 01:41:45;;;;;;;8.70;2.30;;;5.30;99.90;;;;;;5031684;28;20199;-78
2022/01/28 01:44:22;;;;;;;9.10;3.20;;;5.60;99.90;;;;;;5033838;28;20188;-78
2022/01/28 01:52:00;;;;;;;9.07;2.70;;;5.50;99.90;;;;;;5037397;28;20240;-78
2022/01/28 01:52:41;;;;;;;8.43;3.38;;;5.50;99.90;;;;;;5029148;28;20717;-80
2022/01/28 01:55:09;;;;;;;16.42;3.75;;;5.50;99.90;;;;;;5025187;28;20219;-79
2022/01/28 01:57:35;;;;;;;12.32;2.30;;;5.50;99.90;;;;;;5022013;28;20286;-79
2022/01/28 02:00:05;;;;;;;9.48;3.95;;;5.40;99.90;;;;;;5020030;28;20558;-79
2022/01/28 02:02:31;;;;;;;6.57;3.05;;;5.40;99.90;;;;;;5019895;28;20200;-80
2022/01/28 02:04:58;;;;;;;15.57;2.80;;;5.40;99.90;;;;;;5020236;28;20200;-79
2022/01/28 02:07:25;;;;;;;11.50;2.63;;;5.40;99.90;;;;;;5020346;28;20248;-79
2022/01/28 02:09:52;;;;;;;7.65;2.92;;;5.40;99.90;;;;;;5019521;28;20593;-79
2022/01/28 02:12:19;;;;;;;9.48;3.10;;;5.40;99.90;;;;;;5020962;28;20238;-79
2022/01/28 02:14:46;;;;;;;8.45;2.60;;;5.10;99.90;;;;;;5022943;28;20204;-79
2022/01/28 02:17:14;;;;;;;13.73;2.63;;;5.40;99.90;;;;;;5019036;28;20259;-78
2022/01/28 02:19:41;;;;;;;12.93;3.10;;;5.40;99.90;;;;;;5018582;28;20342;-79
2022/01/28 02:22:09;;;;;;;6.10;2.92;;;5.40;99.90;;;;;;5018495;28;20258;-79
2022/01/28 02:24:41;;;;;;;14.68;2.55;;;5.40;99.90;;;;;;5018922;28;20200;-79
2022/01/28 02:27:09;;;;;;;11.40;2.78;;;5.40;99.90;;;;;;5022472;28;20251;-77
2022/01/28 02:29:36;;;;;;;12.68;3.90;;;5.40;99.90;;;;;;5030703;28;20223;-78
2022/01/28 02:32:06;;;;;;;4.82;2.67;;;5.30;99.90;;;;;;5031047;28;20228;-78
2022/01/28 02:34:33;;;;;;;13.32;2.97;;;5.40;99.90;;;;;;5030955;28;20200;-78
2022/01/28 02:37:00;;;;;;;10.55;3.03;;;5.40;99.90;;;;;;5029909;28;20331;-78
2022/01/28 02:39:29;;;;;;;15.45;3.53;;;5.50;99.90;;;;;;5029829;28;20208;-79
2022/01/28 02:42:02;;;;;;;4.65;2.80;;;5.50;99.90;;;;;;5021854;28;20227;-79
2022/01/28 02:44:43;;;;;;;8.95;3.08;;;5.40;99.90;;;;;;5021408;28;20189;-80
2022/01/28 02:47:14;;;;;;;13.10;4.18;;;5.30;99.90;;;;;;5022649;28;20236;-80
2022/01/28 02:49:42;;;;;;;14.82;3.15;;;5.40;99.90;;;;;;5021997;28;20196;-79
2022/01/28 02:52:17;;;;;;;9.55;3.30;;;5.40;99.90;;;;;;5018053;28;20204;-79
2022/01/28 02:54:48;;;;;;;8.63;2.28;;;5.20;99.90;;;;;;5019341;28;20220;-79
2022/01/28 02:57:19;;;;;;;11.60;3.17;;;5.00;99.90;;;;;;5018602;28;20228;-80
2022/01/28 02:59:45;;;;;;;12.65;3.10;;;5.10;99.90;;;;;;5018354;28;20238;-79
2022/01/28 03:02:12;;;;;;;7.68;3.30;;;5.10;99.90;;;;;;5016901;28;20299;-79
2022/01/28 03:05:04;;;;;;;10.30;3.72;;;5.00;99.90;;;;;;5017511;28;20209;-79
2022/01/28 03:07:30;;;;;;;15.60;3.80;;;4.80;99.90;;;;;;5023046;28;20236;-78
2022/01/28 03:13:15;;;;;;;15.50;4.35;;;4.80;99.90;;;;;;5108275;27;20510;-78
2022/01/28 03:15:45;;;;;;;8.50;3.50;;;4.80;99.90;;;;;;5094742;28;20251;-79
2022/01/28 03:18:15;;;;;;;13.60;4.15;;;4.90;99.90;;;;;;5072542;28;20680;-78
2022/01/28 03:20:55;;;;;;;11.05;3.60;;;4.90;99.90;;;;;;5072908;28;20191;-79
2022/01/28 03:23:21;;;;;;;11.25;3.75;;;4.90;99.90;;;;;;5073490;28;20193;-79
2022/01/28 03:25:49;;;;;;;10.68;2.53;;;4.90;99.90;;;;;;5072970;28;20202;-79
2022/01/28 03:28:19;;;;;;;12.15;3.72;;;4.90;99.90;;;;;;5074495;28;20256;-78
2022/01/28 03:30:46;;;;;;;15.55;3.33;;;4.90;99.90;;;;;;5073480;28;20229;-78
2022/01/28 03:33:13;;;;;;;13.02;4.25;;;4.90;99.90;;;;;;5074527;28;20233;-79
2022/01/28 03:35:39;;;;;;;14.07;3.20;;;5.00;99.90;;;;;;5074721;28;20202;-79
2022/01/28 03:38:10;;;;;;;11.70;3.60;;;5.00;99.90;;;;;;5075259;28;20234;-79
2022/01/28 03:40:37;;;;;;;15.23;4.53;;;5.10;99.90;;;;;;5076146;28;20186;-79
2022/01/28 03:43:04;;;;;;;11.38;3.72;;;5.00;99.90;;;;;;5073590;28;20206;-79
2022/01/28 03:45:33;;;;;;;15.40;3.90;;;5.10;99.90;;;;;;5073841;28;20237;-79
2022/01/28 03:48:01;;;;;;;9.30;3.17;;;5.10;99.90;;;;;;5072817;28;20227;-78
2022/01/28 03:50:32;;;;;;;8.57;3.67;;;5.10;99.90;;;;;;5073156;28;20233;-78
2022/01/28 03:52:59;;;;;;;9.70;3.28;;;5.10;99.90;;;;;;5072818;28;20253;-80
2022/01/28 03:55:25;;;;;;;11.23;3.55;;;5.10;99.90;;;;;;5072802;28;20230;-80
2022/01/28 03:57:52;;;;;;;7.93;3.08;;;5.20;99.90;;;;;;5072890;28;20565;-79
2022/01/28 04:00:19;;;;;;;10.18;3.70;;;5.20;99.90;;;;;;5073290;28;20740;-79
2022/01/28 04:02:47;;;;;;;9.15;2.95;;;5.00;99.90;;;;;;5072949;28;20202;-79
2022/01/28 04:06:08;;;;;;;10.18;2.88;;;5.20;99.90;;;;;;5072991;28;20673;-79
2022/01/28 04:13:52;;;;;;;11.43;2.45;;;5.30;99.90;;;;;;5082360;28;20181;-79
2022/01/28 04:16:31;;;;;;;5.57;2.55;;;5.30;99.90;;;;;;5078261;28;20275;-79
2022/01/28 04:19:01;;;;;;;11.95;3.00;;;5.50;99.90;;;;;;5083542;28;20193;-79
2022/01/28 04:21:28;;;;;;;17.20;3.55;;;5.30;99.90;;;;;;5083768;28;20198;-80
2022/01/28 04:23:55;;;;;;;11.98;4.18;;;5.40;99.90;;;;;;5072304;28;20202;-79
2022/01/28 04:26:22;;;;;;;5.53;2.50;;;5.30;99.90;;;;;;5069978;28;20281;-80
2022/01/28 04:28:48;;;;;;;16.08;2.53;;;5.40;99.90;;;;;;5066086;28;20629;-79
2022/01/28 04:31:15;;;;;;;8.70;3.85;;;5.40;99.90;;;;;;5067025;28;20218;-79
2022/01/28 04:33:41;;;;;;;12.98;3.17;;;5.40;99.90;;;;;;5076176;28;20210;-78
2022/01/28 04:36:12;;;;;;;11.63;3.05;;;5.40;99.90;;;;;;5077036;28;20590;-79
2022/01/28 04:38:46;;;;;;;15.88;3.40;;;5.40;99.90;;;;;;5072504;28;20187;-79
2022/01/28 04:41:19;;;;;;;9.43;2.75;;;5.40;99.90;;;;;;5071557;28;20183;-79
2022/01/28 04:43:51;;;;;;;11.10;2.97;;;5.40;99.90;;;;;;5070857;28;20187;-78
2022/01/28 04:46:28;;;;;;;9.15;3.10;;;5.40;99.90;;;;;;5069439;28;20223;-80
2022/01/28 04:49:01;;;;;;;11.98;3.70;;;5.40;99.90;;;;;;5064271;28;20245;-79
2022/01/28 04:51:46;;;;;;;10.32;2.63;;;5.40;99.90;;;;;;5061154;28;20211;-79
2022/01/28 04:54:34;;;;;;;14.35;4.60;;;5.40;99.90;;;;;;5060231;28;20187;-80
2022/01/28 04:57:07;;;;;;;14.27;3.08;;;5.40;99.90;;;;;;5059119;28;20847;-80
2022/01/28 04:59:46;;;;;;;9.02;3.53;;;5.40;99.90;;;;;;5058859;28;20389;-80
2022/01/28 05:02:31;;;;;;;15.32;3.58;;;5.40;99.90;;;;;;5060200;28;20183;-79
2022/01/28 05:05:17;;;;;;;13.60;2.95;;;5.40;99.90;;;;;;5058763;28;20528;-79
2022/01/28 05:08:03;;;;;;;12.27;3.25;;;5.40;99.90;;;;;;5064230;28;20245;-79
2022/01/28 05:11:00;;;;;;;7.32;2.55;;;5.40;99.90;;;;;;5061855;28;20594;-79
2022/01/28 05:13:49;;;;;;;11.77;3.08;;;5.40;99.90;;;;;;5059020;28;20187;-80
2022/01/28 05:27:18;;;;;;;8.48;2.70;;;5.40;99.90;;;;;;5052907;28;20219;-80
2022/01/28 05:29:45;;;;;;;7.30;3.20;;;5.50;99.90;;;;;;5059900;28;20257;-80
2022/01/28 05:32:12;;;;;;;6.45;3.75;;;5.50;99.90;;;;;;5059755;28;20281;-80
2022/01/28 05:34:39;;;;;;;14.90;3.55;;;5.50;99.90;;;;;;5059103;28;20252;-79
2022/01/28 05:37:06;;;;;;;12.63;2.97;;;5.40;99.90;;;;;;5059804;28;20277;-78
2022/01/28 05:39:34;;;;;;;9.95;3.10;;;5.40;99.90;;;;;;5056902;28;20260;-79
2022/01/28 05:42:01;;;;;;;9.25;2.90;;;5.40;99.90;;;;;;5057548;28;20707;-79
2022/01/28 05:44:27;;;;;;;13.90;2.90;;;5.50;99.90;;;;;;5058085;28;20202;-79
2022/01/28 05:46:56;;;;;;;12.63;3.92;;;5.50;99.90;;;;;;5057799;28;20288;-79
2022/01/28 05:49:23;;;;;;;9.40;2.75;;;5.30;99.90;;;;;;5067367;28;20239;-79
2022/01/28 05:51:50;;;;;;;11.75;3.40;;;5.40;99.90;;;;;;5067042;28;20502;-80
2022/01/28 05:54:16;;;;;;;10.48;2.58;;;5.50;99.90;;;;;;5071415;28;20203;-79
2022/01/28 05:56:44;;;;;;;9.50;3.47;;;5.50;99.90;;;;;;5076068;28;20227;-79
2022/01/28 05:59:11;;;;;;;9.88;3.95;;;5.40;99.90;;;;;;5076396;28;20210;-78
2022/01/28 06:01:38;;;;;;;6.15;3.25;;;5.40;99.90;;;;;;5073055;28;20203;-79
2022/01/28 06:04:04;;;;;;;5.50;3.45;;;5.40;99.90;;;;;;5071678;28;20238;-78
2022/01/28 06:06:32;;;;;;;10.23;3.38;;;5.50;99.90;;;;;;5071426;28;20227;-79
2022/01/28 06:08:59;;;;;;;13.68;3.70;;;5.50;99.90;;;;;;5062476;28;20203;-79
2022/01/28 06:11:26;;;;;;;11.50;3.17;;;5.40;99.90;;;;;;5062735;28;20207;-79
2022/01/28 06:13:53;;;;;;;14.40;4.00;;;5.40;99.90;;;;;;5069986;28;20203;-79
2022/01/28 06:16:20;;;;;;;11.40;3.35;;;5.40;99.90;;;;;;5061057;28;20234;-81
2022/01/28 06:18:47;;;;;;;10.50;3.17;;;5.40;99.90;;;;;;5059065;28;20229;-82
2022/01/28 06:21:14;;;;;;;19.27;4.85;;;5.30;99.90;;;;;;5058653;28;20264;-81
2022/01/28 06:23:40;;;;;;;14.77;3.33;;;5.40;99.90;;;;;;5062113;28;20210;-80
2022/01/28 06:26:07;;;;;;;12.00;3.70;;;5.40;99.90;;;;;;5060727;28;20262;-79
2022/01/28 06:28:33;;;;;;;9.13;3.17;;;5.40;99.90;;;;;;5059019;28;20234;-79
2022/01/28 06:31:01;;;;;;;17.52;3.55;;;5.50;99.90;;;;;;5062311;28;20564;-80
2022/01/28 06:33:28;;;;;;;15.82;3.67;;;5.40;99.90;;;;;;5062261;28;20234;-78
2022/01/28 06:35:55;;;;;;;13.20;3.33;;;5.40;99.90;;;;;;5062093;28;20207;-80
2022/01/28 06:38:21;;;;;;;13.07;3.42;;;5.40;99.90;;;;;;5059874;28;20203;-80
2022/01/28 06:40:49;;;;;;;12.25;3.08;;;5.40;99.90;;;;;;5060337;28;20207;-79
2022/01/28 06:43:16;;;;;;;8.43;2.33;;;5.40;99.90;;;;;;5060774;28;20202;-80
2022/01/28 06:45:43;;;;;;;14.13;3.72;;;5.40;99.90;;;;;;5060169;28;20252;-79
2022/01/28 06:48:11;;;;;;;13.13;2.80;;;5.30;99.90;;;;;;5059964;28;20249;-80
2022/01/28 06:50:38;;;;;;;15.70;3.38;;;5.40;99.90;;;;;;5062780;28;20222;-79
2022/01/28 06:53:07;;;;;;;10.35;3.05;;;5.60;99.90;;;;;;5069065;28;20294;-78
2022/01/28 06:55:34;;;;;;;17.55;3.28;;;5.30;99.90;;;;;;5066978;28;20206;-80
2022/01/28 06:58:00;;;;;;;15.27;3.40;;;5.40;99.90;;;;;;5062715;28;20227;-81
2022/01/28 07:00:27;;;;;;;14.32;4.90;;;5.30;99.90;;;;;;5060166;28;20211;-79
2022/01/28 07:02:54;;;;;;;12.27;3.42;;;5.30;99.90;;;;;;5059031;28;20207;-81
2022/01/28 07:05:21;;;;;;;10.70;3.22;;;5.30;99.90;;;;;;5059377;28;20207;-79
2022/01/28 07:07:48;;;;;;;13.82;4.00;;;5.30;99.90;;;;;;5061486;28;20222;-79
2022/01/28 07:10:15;;;;;;;8.82;2.83;;;5.30;99.90;;;;;;5068805;28;20278;-79
2022/01/28 07:12:41;;;;;;;20.25;5.65;;;5.30;99.90;;;;;;5059708;28;20222;-79
2022/01/28 07:15:09;;;;;;;10.98;3.28;;;5.30;99.90;;;;;;5071029;28;20226;-79
2022/01/28 07:17:35;;;;;;;15.45;4.32;;;5.20;99.90;;;;;;5073850;28;20215;-78
2022/01/28 07:20:02;;;;;;;9.70;2.97;;;5.30;99.90;;;;;;5067015;28;20195;-79
2022/01/28 07:22:30;;;;;;;11.55;4.15;;;5.30;99.90;;;;;;5060045;28;20604;-79
2022/01/28 07:24:56;;;;;;;12.75;4.10;;;5.20;99.90;;;;;;5057825;28;20230;-79
2022/01/28 07:27:23;;;;;;;11.05;4.57;;;5.20;99.90;;;;;;5063446;28;20226;-80
2022/01/28 07:29:50;;;;;;;13.20;4.30;;;5.20;99.90;;;;;;5065679;28;20206;-80
2022/01/28 07:32:17;;;;;;;14.25;4.25;;;5.20;99.90;;;;;;5063740;28;20317;-81
2022/01/28 07:34:45;;;;;;;8.55;3.05;;;5.10;99.90;;;;;;5064353;28;20203;-81
2022/01/28 07:37:11;;;;;;;15.10;4.18;;;5.10;99.90;;;;;;5062827;28;20284;-78
2022/01/28 07:39:39;;;;;;;16.40;4.53;;;5.10;99.90;;;;;;5062119;28;20206;-78
2022/01/28 07:42:07;;;;;;;17.20;4.10;;;5.10;99.90;;;;;;5064359;28;20203;-80
2022/01/28 07:44:34;;;;;;;8.73;3.35;;;5.10;99.90;;;;;;5060795;28;20207;-79
2022/01/28 07:47:00;;;;;;;11.75;4.38;;;4.80;99.90;;;;;;5060741;28;20716;-79
2022/01/28 07:49:27;;;;;;;11.55;3.03;;;5.10;99.90;;;;;;5060245;28;20199;-80
2022/01/28 07:51:53;;;;;;;15.73;4.28;;;5.00;99.90;;;;;;5060352;28;20235;-79
2022/01/28 07:54:20;;;;;;;10.82;3.28;;;5.00;99.90;;;;;;5059945;28;20207;-79
2022/01/28 07:56:52;;;;;;;8.93;3.50;;;5.00;99.90;;;;;;5059898;28;20227;-80
2022/01/28 07:59:19;;;;;;;14.63;3.80;;;5.00;99.90;;;;;;5063896;28;20187;-79
2022/01/28 08:01:45;;;;;;;16.95;4.75;;;4.70;99.90;;;;;;5063956;28;20207;-79
2022/01/28 08:04:12;;;;;;;18.23;4.72;;;5.00;99.90;;;;;;5063416;28;20203;-79
2022/01/28 08:06:39;;;;;;;15.40;4.25;;;4.90;99.90;;;;;;5063885;28;20218;-79
2022/01/28 08:09:05;;;;;;;16.55;4.15;;;4.90;99.90;;;;;;5063393;28;20236;-79
2022/01/28 08:11:32;;;;;;;18.58;3.72;;;4.80;99.90;;;;;;5069071;28;20245;-79
2022/01/28 08:14:00;;;;;;;22.75;3.95;;;4.80;99.90;;;;;;5075390;28;20227;-78
2022/01/28 08:16:26;;;;;;;18.98;3.83;;;4.70;99.90;;;;;;5079419;28;20223;-79
2022/01/28 08:18:53;;;;;;;10.25;4.30;;;4.80;99.90;;;;;;5077473;28;20190;-80
2022/01/28 08:21:20;;;;;;;19.95;4.90;;;4.80;99.90;;;;;;5066784;28;20294;-79
2022/01/28 08:23:46;;;;;;;16.70;6.50;;;4.70;99.90;;;;;;5063786;28;20195;-80
2022/01/28 08:26:13;;;;;;;13.68;5.07;;;4.70;99.90;;;;;;5063777;28;20261;-79
2022/01/28 08:28:41;;;;;;;10.45;4.13;;;4.70;99.90;;;;;;5063919;28;20238;-80
2022/01/28 08:31:09;;;;;;;16.25;4.25;;;4.70;99.90;;;;;;5062347;28;20203;-80
2022/01/28 08:33:36;;;;;;;14.25;5.25;;;4.70;99.90;;;;;;5063240;28;20222;-80
2022/01/28 08:36:03;;;;;;;16.63;5.07;;;4.60;99.90;;;;;;5061486;28;20226;-80
2022/01/28 08:38:35;;;;;;;15.68;3.55;;;4.70;99.90;;;;;;5061344;28;20662;-81
2022/01/28 08:41:02;;;;;;;8.98;3.70;;;4.70;99.90;;;;;;5070451;28;20187;-79
2022/01/28 08:43:29;;;;;;;19.17;6.10;;;4.70;99.90;;;;;;5070812;28;20650;-77
2022/01/28 08:45:56;;;;;;;12.10;4.50;;;4.70;99.90;;;;;;5067865;28;20203;-79
2022/01/28 08:48:24;;;;;;;15.00;3.75;;;4.70;99.90;;;;;;5059745;28;20249;-80
2022/01/28 08:50:51;;;;;;;19.23;4.57;;;4.70;99.90;;;;;;5060486;28;20199;-78
2022/01/28 08:53:18;;;;;;;15.77;4.60;;;5.30;99.90;;;;;;5058890;28;20314;-81
2022/01/28 08:55:44;;;;;;;17.67;3.75;;;4.70;99.90;;;;;;5059971;28;20576;-78
2022/01/28 08:58:13;;;;;;;18.02;4.25;;;4.70;99.90;;;;;;5060182;28;20257;-79
2022/01/28 09:00:39;;;;;;;11.48;3.95;;;4.80;99.90;;;;;;5063155;28;20313;-80
2022/01/28 09:03:06;;;;;;;16.20;5.43;;;4.70;99.90;;;;;;5064264;28;20210;-79
2022/01/28 09:05:34;;;;;;;19.38;4.47;;;4.80;99.90;;;;;;5066009;28;20203;-79
2022/01/28 09:08:06;;;;;;;18.92;4.68;;;5.00;99.90;;;;;;5064761;28;20654;-80
2022/01/28 09:10:42;;;;;;;12.00;5.72;;;4.70;99.90;;;;;;5064216;28;20260;-82
2022/01/28 09:15:52;;;;;;;13.65;3.67;;;4.60;99.90;;;;;;5059476;28;20195;-80
2022/01/28 09:18:20;;;;;;;14.10;4.78;;;4.80;99.90;;;;;;5060093;28;20294;-78
2022/01/28 09:20:48;;;;;;;14.60;4.03;;;4.90;99.90;;;;;;5058876;28;20230;-80
2022/01/28 09:23:14;;;;;;;20.52;5.25;;;5.00;99.90;;;;;;5119865;22;20202;-80
2022/01/28 09:25:42;;;;;;;15.85;3.40;;;5.00;99.90;;;;;;5057333;28;20188;-79
2022/01/28 09:28:09;;;;;;;10.80;4.25;;;5.00;99.90;;;;;;5048006;28;20230;-82
2022/01/28 09:30:36;;;;;;;16.35;4.85;;;5.00;99.90;;;;;;5046434;28;20257;-81
2022/01/28 09:33:04;;;;;;;20.65;3.95;;;5.30;99.90;;;;;;5048420;28;20242;-81
2022/01/28 09:35:31;;;;;;;11.98;3.80;;;5.10;99.90;;;;;;5046145;28;20203;-82
2022/01/28 09:37:59;;;;;;;10.65;4.55;;;5.10;99.90;;;;;;5045800;28;20242;-82
2022/01/28 09:40:26;;;;;;;17.58;4.95;;;5.10;99.90;;;;;;5048092;28;20208;-79
2022/01/28 09:42:53;;;;;;;14.10;5.22;;;4.90;99.90;;;;;;5045887;28;20204;-80
2022/01/28 09:45:23;;;;;;;15.27;3.40;;;4.30;99.90;;;;;;5044725;28;20203;-82
2022/01/28 09:47:53;;;;;;;13.98;4.13;;;5.10;99.90;;;;;;5044315;28;20502;-83
2022/01/28 09:50:22;;;;;;;14.82;5.47;;;5.10;99.90;;;;;;5042977;28;20244;-82
2022/01/28 09:52:49;;;;;;;12.88;4.00;;;5.10;99.90;;;;;;5043688;28;20310;-83
2022/01/28 09:55:17;;;;;;;13.32;3.70;;;5.10;99.90;;;;;;5044553;28;20203;-82
2022/01/28 09:57:45;;;;;;;13.82;3.97;;;5.20;99.90;;;;;;5042854;28;20674;-82
2022/01/28 10:00:13;;;;;;;14.75;3.95;;;5.30;99.90;;;;;;5043906;28;20199;-81
2022/01/28 10:02:50;;;;;;;12.80;3.92;;;5.30;99.90;;;;;;5043110;28;20246;-81
2022/01/28 10:05:19;;;;;;;11.48;4.05;;;5.30;99.90;;;;;;5048224;28;20191;-81
2022/01/28 10:08:00;;;;;;;17.17;4.20;;;5.30;99.90;;;;;;5046541;28;20250;-79
2022/01/28 10:10:40;;;;;;;12.00;3.58;;;5.40;99.90;;;;;;5045226;28;20255;-80
2022/01/28 10:13:13;;;;;;;17.38;2.83;;;5.40;99.90;;;;;;5044740;28;20231;-82
2022/01/28 10:15:54;;;;;;;11.50;3.05;;;5.40;99.90;;;;;;5043281;28;20210;-83
2022/01/28 10:18:21;;;;;;;11.85;3.30;;;5.30;99.90;;;;;;5043254;28;20199;-80
2022/01/28 10:20:47;;;;;;;12.52;4.13;;;5.20;99.90;;;;;;5042677;28;20203;-82
2022/01/28 10:23:15;;;;;;;14.20;4.43;;;5.30;99.90;;;;;;5044554;28;20215;-79
2022/01/28 10:25:45;;;;;;;16.52;3.28;;;5.40;99.90;;;;;;5047662;28;20196;-78
2022/01/28 10:28:13;;;;;;;12.75;2.80;;;5.40;99.90;;;;;;5051573;28;20274;-80
2022/01/28 10:30:41;;;;;;;11.40;4.20;;;5.40;99.90;;;;;;5052341;28;20207;-80
2022/01/28 10:33:14;;;;;;;13.30;3.33;;;5.40;99.90;;;;;;5048324;28;20266;-78
2022/01/28 10:35:53;;;;;;;10.55;3.33;;;5.40;99.90;;;;;;5050345;28;20290;-80
2022/01/28 10:38:33;;;;;;;8.02;2.83;;;5.40;99.90;;;;;;5050759;28;20184;-81
2022/01/28 10:41:09;;;;;;;17.27;4.53;;;5.40;99.90;;;;;;5048528;28;20198;-79
2022/01/28 10:43:43;;;;;;;14.38;3.88;;;5.40;99.90;;;;;;5047888;28;20226;-79
2022/01/28 10:46:10;;;;;;;12.68;2.92;;;5.50;99.90;;;;;;5051116;28;20175;-80
2022/01/28 10:48:49;;;;;;;19.45;3.83;;;5.60;99.90;;;;;;5050973;28;20199;-82
2022/01/28 10:51:16;;;;;;;9.32;3.38;;;5.50;99.90;;;;;;5052411;28;20191;-82
2022/01/28 10:53:43;;;;;;;12.63;4.68;;;5.50;99.90;;;;;;5050116;28;20231;-79
2022/01/28 10:56:13;;;;;;;20.33;4.18;;;5.50;99.90;;;;;;5044584;28;20208;-80
2022/01/28 10:58:40;;;;;;;20.63;5.38;;;5.50;99.90;;;;;;5044730;28;20199;-81
2022/01/28 11:01:12;;;;;;;11.35;3.92;;;5.40;99.90;;;;;;5044711;28;20203;-81
2022/01/28 11:03:40;;;;;;;9.38;3.95;;;5.40;99.90;;;;;;5042622;28;20266;-83
2022/01/28 11:06:07;;;;;;;20.48;4.97;;;5.50;99.90;;;;;;5040315;28;20279;-82
2022/01/28 11:08:35;;;;;;;9.57;3.53;;;5.60;99.90;;;;;;5042217;28;20207;-81
2022/01/28 11:11:02;;;;;;;10.63;4.25;;;5.50;99.90;;;;;;5042297;28;20207;-81
2022/01/28 11:13:30;;;;;;;14.10;5.10;;;5.50;99.90;;;;;;5042087;28;20277;-82
2022/01/28 11:15:57;;;;;;;11.23;4.57;;;5.50;99.90;;;;;;5041511;28;20579;-83
2022/01/28 11:18:25;;;;;;;9.07;3.63;;;5.60;99.90;;;;;;5040310;28;20238;-80
2022/01/28 11:20:55;;;;;;;13.95;3.30;;;5.60;99.90;;;;;;5042170;28;20203;-83
2022/01/28 11:23:30;;;;;;;5.90;2.42;;;5.60;99.90;;;;;;5042016;28;20293;-82
2022/01/28 11:26:12;;;;;;;14.52;3.33;;;5.60;99.90;;;;;;5042245;28;20261;-82
2022/01/28 11:28:42;;;;;;;9.23;3.67;;;5.60;99.90;;;;;;5041313;28;20218;-82
2022/01/28 11:31:09;;;;;;;13.60;4.65;;;5.60;99.90;;;;;;5042628;28;20592;-81
2022/01/28 11:33:43;;;;;;;14.25;4.57;;;5.80;99.90;;;;;;5046384;28;20232;-81
2022/01/28 11:36:10;;;;;;;15.00;3.55;;;5.80;99.90;;;;;;5051148;28;20236;-82
2022/01/28 11:38:41;;;;;;;8.57;2.90;;;5.80;99.90;;;;;;5051570;28;20204;-79
2022/01/28 11:41:10;;;;;;;12.52;3.25;;;6.00;99.90;;;;;;5050505;28;20184;-80
2022/01/28 11:43:47;;;;;;;9.98;3.20;;;6.00;99.90;;;;;;5047861;28;20226;-80
2022/01/28 11:46:19;;;;;;;11.57;3.00;;;6.10;99.90;;;;;;5043213;28;20196;-82
2022/01/28 11:49:21;;;;;;;9.10;2.72;;;6.20;99.90;;;;;;5043604;28;20242;-82
2022/01/28 11:51:48;;;;;;;8.07;2.22;;;6.10;99.90;;;;;;5037003;28;20203;-83
2022/01/28 11:54:16;;;;;;;14.00;4.85;;;6.00;99.90;;;;;;5049074;28;20223;-81
2022/01/28 11:57:17;;;;;;;10.73;3.17;;;6.00;99.90;;;;;;5046600;28;20204;-83
2022/01/28 11:59:46;;;;;;;16.88;4.25;;;6.10;99.90;;;;;;5046321;28;20191;-81
2022/01/28 12:02:19;;;;;;;12.25;3.35;;;6.10;99.90;;;;;;5044547;28;20265;-82
2022/01/28 12:04:46;;;;;;;5.20;2.80;;;6.10;99.90;;;;;;5044059;28;20215;-85
2022/01/28 12:07:18;;;;;;;17.45;3.33;;;6.00;99.90;;;;;;5046847;28;20271;-82
2022/01/28 12:09:48;;;;;;;16.13;3.33;;;6.00;99.90;;;;;;5051793;28;20188;-82
2022/01/28 12:12:23;;;;;;;7.72;2.95;;;6.00;99.90;;;;;;5055436;28;20203;-80
2022/01/28 12:15:09;;;;;;;8.88;2.80;;;5.90;99.90;;;;;;5051784;28;20227;-80
2022/01/28 12:17:40;;;;;;;8.25;3.00;;;6.00;99.90;;;;;;5054103;28;20247;-80
2022/01/28 12:20:36;;;;;;;6.63;2.42;;;6.00;99.90;;;;;;5051080;28;20218;-80
2022/01/28 12:23:30;;;;;;;13.63;2.92;;;5.90;99.90;;;;;;5052077;28;20266;-81
2022/01/28 12:25:59;;;;;;;10.10;2.60;;;6.10;99.90;;;;;;5049417;28;20222;-80
2022/01/28 12:28:41;;;;;;;4.82;2.95;;;6.10;99.90;;;;;;5050251;28;20267;-80
2022/01/28 12:31:13;;;;;;;11.90;3.17;;;6.10;99.90;;;;;;5044116;28;20238;-82
2022/01/28 12:33:42;;;;;;;6.88;2.15;;;6.20;99.90;;;;;;5057604;28;20250;-81
2022/01/28 12:36:11;;;;;;;7.28;2.10;;;6.30;99.90;;;;;;5055573;28;20262;-83
2022/01/28 12:38:43;;;;;;;12.43;3.00;;;6.30;91.90;;;;;;5057174;28;20207;-82
2022/01/28 12:41:11;;;;;;;8.77;3.83;;;8.20;99.90;;;;;;5057963;28;20188;-82
2022/01/28 12:43:38;;;;;;;10.65;3.15;;;6.40;99.90;;;;;;5057628;28;20224;-81
2022/01/28 12:46:07;;;;;;;7.25;2.47;;;6.40;99.90;;;;;;5048318;28;20215;-83
2022/01/28 12:48:36;;;;;;;11.10;2.45;;;6.40;7.80;;;;;;5047944;28;20203;-82
2022/01/28 12:51:07;;;;;;;5.57;2.38;;;6.30;66.00;;;;;;5045323;28;20200;-82
2022/01/28 12:53:36;;;;;;;8.30;2.80;;;6.30;99.90;;;;;;5047213;28;20227;-79
2022/01/28 12:56:05;;;;;;;5.53;2.45;;;6.20;99.90;;;;;;5057894;28;20192;-80
2022/01/28 12:58:40;;;;;;;10.20;2.45;;;6.10;99.90;;;;;;5060194;28;20196;-81
2022/01/28 13:01:11;;;;;;;13.57;3.28;;;5.40;99.90;;;;;;5060072;28;20236;-80
2022/01/28 13:03:48;;;;;;;10.70;2.75;;;6.30;1.00;;;;;;5051559;28;20227;-80
2022/01/28 13:06:23;;;;;;;13.68;2.90;;;6.30;99.90;;;;;;5045019;28;20220;-80
2022/01/28 13:08:49;;;;;;;11.25;3.85;;;6.20;6.50;;;;;;5044279;28;20304;-82
2022/01/28 13:11:16;;;;;;;12.32;2.83;;;6.30;99.90;;;;;;5043208;28;20654;-80
2022/01/28 13:13:48;;;;;;;8.25;2.42;;;6.30;99.90;;;;;;5044855;28;20258;-80
2022/01/28 13:16:14;;;;;;;8.27;3.03;;;6.30;99.90;;;;;;5048878;28;20188;-78
2022/01/28 13:18:56;;;;;;;12.00;2.70;;;6.50;99.90;;;;;;5049643;28;20207;-79
2022/01/28 13:21:23;;;;;;;8.23;2.67;;;6.30;1.00;;;;;;5048956;28;20191;-79
2022/01/28 13:23:49;;;;;;;5.95;2.97;;;6.30;99.90;;;;;;5042807;28;20227;-81
2022/01/28 13:26:16;;;;;;;7.93;2.67;;;6.30;1.00;;;;;;5040047;28;20211;-82
2022/01/28 13:28:44;;;;;;;8.88;3.78;;;5.60;99.90;;;;;;5039920;28;20613;-82
2022/01/28 13:31:11;;;;;;;14.60;2.95;;;6.20;99.90;;;;;;5039736;28;20582;-81
2022/01/28 13:33:37;;;;;;;5.68;2.33;;;6.10;1.00;;;;;;5044179;28;20220;-82
2022/01/28 13:36:06;;;;;;;9.70;2.90;;;6.20;99.90;;;;;;5041993;28;20548;-82
2022/01/28 13:38:39;;;;;;;5.97;3.00;;;6.20;99.90;;;;;;5041894;28;20203;-81
2022/01/28 13:41:20;;;;;;;7.65;2.63;;;6.20;99.90;;;;;;5040127;28;20287;-81
2022/01/28 13:43:46;;;;;;;13.23;2.38;;;6.30;99.90;;;;;;5044594;28;20710;-79
2022/01/28 13:46:14;;;;;;;9.15;2.95;;;6.30;1.00;;;;;;5047208;28;20207;-81
2022/01/28 13:48:45;;;;;;;8.27;2.85;;;6.30;99.90;;;;;;5052327;28;20208;-79